sensor_id;sensor_type;location;lat;lon;timestamp;temperature;humidity
55173;DHT22;41061;52.822;6.860;2023-11-21T00:01:19;8.30;99.90
55173;DHT22;41061;52.822;6.860;2023-11-21T00:03:44;8.20;99.90
55173;DHT22;41061;52.822;6.860;2023-11-21T00:06:10;8.20;99.90
55173;DHT22;41061;52.822;6.860;2023-11-21T00:08:36;8.30;99.90
55173;DHT22;41061;52.822;6.860;2023-11-21T00:11:02;8.30;99.90
55173;DHT22;41061;52.822;6.860;2023-11-21T00:13:31;8.30;99.90
55173;DHT22;41061;52.822;6.860;2023-11-21T00:15:58;8.30;99.90
55173;DHT22;41061;52.822;6.860;2023-11-21T00:18:23;8.30;99.90
55173;DHT22;41061;52.822;6.860;2023-11-21T00:20:49;8.30;99.90
55173;DHT22;41061;52.822;6.860;2023-11-21T00:23:15;8.30;99.90
55173;DHT22;41061;52.822;6.860;2023-11-21T00:25:40;8.30;99.90
55173;DHT22;41061;52.822;6.860;2023-11-21T00:28:06;8.30;99.90
55173;DHT22;41061;52.822;6.860;2023-11-21T00:30:32;8.30;99.90
55173;DHT22;41061;52.822;6.860;2023-11-21T00:32:58;8.30;99.90
55173;DHT22;41061;52.822;6.860;2023-11-21T00:35:24;8.30;99.90
55173;DHT22;41061;52.822;6.860;2023-11-21T00:37:50;8.30;99.90
55173;DHT22;41061;52.822;6.860;2023-11-21T00:40:15;8.30;99.90
55173;DHT22;41061;52.822;6.860;2023-11-21T00:42:44;8.30;99.90
55173;DHT22;41061;52.822;6.860;2023-11-21T00:45:10;8.30;99.90
55173;DHT22;41061;52.822;6.860;2023-11-21T00:47:36;8.30;99.90
55173;DHT22;41061;52.822;6.860;2023-11-21T00:50:04;8.30;99.90
55173;DHT22;41061;52.822;6.860;2023-11-21T00:52:32;8.40;99.90
55173;DHT22;41061;52.822;6.860;2023-11-21T00:54:57;8.40;99.90
55173;DHT22;41061;52.822;6.860;2023-11-21T00:57:26;8.40;99.90
55173;DHT22;41061;52.822;6.860;2023-11-21T00:59:51;8.40;99.90
55173;DHT22;41061;52.822;6.860;2023-11-21T01:02:17;8.40;99.90
55173;DHT22;41061;52.822;6.860;2023-11-21T01:04:43;8.40;99.90
55173;DHT22;41061;52.822;6.860;2023-11-21T01:07:09;8.50;99.90
55173;DHT22;41061;52.822;6.860;2023-11-21T01:09:35;8.40;99.90
55173;DHT22;41061;52.822;6.860;2023-11-21T01:12:00;8.50;99.90
55173;DHT22;41061;52.822;6.860;2023-11-21T01:14:26;8.50;99.90
55173;DHT22;41061;52.822;6.860;2023-11-21T01:16:52;8.50;99.90
55173;DHT22;41061;52.822;6.860;2023-11-21T01:19:18;8.50;99.90
55173;DHT22;41061;52.822;6.860;2023-11-21T01:21:44;8.60;99.90
55173;DHT22;41061;52.822;6.860;2023-11-21T01:24:09;8.50;99.90
55173;DHT22;41061;52.822;6.860;2023-11-21T01:26:35;8.50;99.90
55173;DHT22;41061;52.822;6.860;2023-11-21T01:29:01;8.50;99.90
55173;DHT22;41061;52.822;6.860;2023-11-21T01:31:27;8.50;99.90
55173;DHT22;41061;52.822;6.860;2023-11-21T01:33:55;8.60;99.90
55173;DHT22;41061;52.822;6.860;2023-11-21T01:36:21;8.60;99.90
55173;DHT22;41061;52.822;6.860;2023-11-21T01:38:47;8.60;99.90
55173;DHT22;41061;52.822;6.860;2023-11-21T01:41:14;8.60;99.90
55173;DHT22;41061;52.822;6.860;2023-11-21T01:43:40;8.60;99.90
55173;DHT22;41061;52.822;6.860;2023-11-21T01:46:06;8.60;99.90
55173;DHT22;41061;52.822;6.860;2023-11-21T01:48:33;8.60;99.90
55173;DHT22;41061;52.822;6.860;2023-11-21T01:51:00;8.60;99.90
55173;DHT22;41061;52.822;6.860;2023-11-21T01:53:26;8.60;99.90
55173;DHT22;41061;52.822;6.860;2023-11-21T01:55:55;8.60;99.90
55173;DHT22;41061;52.822;6.860;2023-11-21T01:58:21;8.60;99.90
55173;DHT22;41061;52.822;6.860;2023-11-21T02:00:48;8.60;99.90
55173;DHT22;41061;52.822;6.860;2023-11-21T02:03:16;8.60;99.90
55173;DHT22;41061;52.822;6.860;2023-11-21T02:05:42;8.60;99.90
55173;DHT22;41061;52.822;6.860;2023-11-21T02:08:08;8.60;99.90
55173;DHT22;41061;52.822;6.860;2023-11-21T02:10:35;8.60;99.90
55173;DHT22;41061;52.822;6.860;2023-11-21T02:13:02;8.60;99.90
55173;DHT22;41061;52.822;6.860;2023-11-21T02:15:29;8.60;99.90
55173;DHT22;41061;52.822;6.860;2023-11-21T02:17:54;8.60;99.90
55173;DHT22;41061;52.822;6.860;2023-11-21T02:20:21;8.60;99.90
55173;DHT22;41061;52.822;6.860;2023-11-21T02:22:56;8.60;99.90
55173;DHT22;41061;52.822;6.860;2023-11-21T02:25:30;8.60;99.90
55173;DHT22;41061;52.822;6.860;2023-11-21T02:27:57;8.60;99.90
55173;DHT22;41061;52.822;6.860;2023-11-21T02:30:23;8.60;99.90
55173;DHT22;41061;52.822;6.860;2023-11-21T02:32:51;8.60;99.90
55173;DHT22;41061;52.822;6.860;2023-11-21T02:35:19;8.60;99.90
55173;DHT22;41061;52.822;6.860;2023-11-21T02:37:49;8.60;99.90
55173;DHT22;41061;52.822;6.860;2023-11-21T02:40:15;8.60;99.90
55173;DHT22;41061;52.822;6.860;2023-11-21T02:42:46;8.60;99.90
55173;DHT22;41061;52.822;6.860;2023-11-21T02:45:14;8.60;99.90
55173;DHT22;41061;52.822;6.860;2023-11-21T02:47:42;8.60;99.90
55173;DHT22;41061;52.822;6.860;2023-11-21T02:50:08;8.60;99.90
55173;DHT22;41061;52.822;6.860;2023-11-21T02:52:35;8.60;99.90
55173;DHT22;41061;52.822;6.860;2023-11-21T02:55:02;8.60;99.90
55173;DHT22;41061;52.822;6.860;2023-11-21T02:57:27;8.60;99.90
55173;DHT22;41061;52.822;6.860;2023-11-21T02:59:54;8.70;99.90
55173;DHT22;41061;52.822;6.860;2023-11-21T03:02:20;8.70;99.90
55173;DHT22;41061;52.822;6.860;2023-11-21T03:04:46;8.70;99.90
55173;DHT22;41061;52.822;6.860;2023-11-21T03:07:13;8.70;99.90
55173;DHT22;41061;52.822;6.860;2023-11-21T03:09:39;8.70;99.90
55173;DHT22;41061;52.822;6.860;2023-11-21T03:12:05;8.70;99.90
55173;DHT22;41061;52.822;6.860;2023-11-21T03:14:31;8.70;99.90
55173;DHT22;41061;52.822;6.860;2023-11-21T03:16:57;8.70;99.90
55173;DHT22;41061;52.822;6.860;2023-11-21T03:19:23;8.70;99.90
55173;DHT22;41061;52.822;6.860;2023-11-21T03:21:49;8.70;99.90
55173;DHT22;41061;52.822;6.860;2023-11-21T03:24:14;8.80;99.90
55173;DHT22;41061;52.822;6.860;2023-11-21T03:26:45;8.70;99.90
55173;DHT22;41061;52.822;6.860;2023-11-21T03:29:10;8.70;99.90
55173;DHT22;41061;52.822;6.860;2023-11-21T03:31:36;8.70;99.90
55173;DHT22;41061;52.822;6.860;2023-11-21T03:34:02;8.70;99.90
55173;DHT22;41061;52.822;6.860;2023-11-21T03:36:27;8.70;99.90
55173;DHT22;41061;52.822;6.860;2023-11-21T03:38:53;8.80;99.90
55173;DHT22;41061;52.822;6.860;2023-11-21T03:41:19;8.80;99.90
55173;DHT22;41061;52.822;6.860;2023-11-21T03:43:44;8.80;99.90
55173;DHT22;41061;52.822;6.860;2023-11-21T03:46:10;8.80;99.90
55173;DHT22;41061;52.822;6.860;2023-11-21T03:48:36;8.80;99.90
55173;DHT22;41061;52.822;6.860;2023-11-21T03:51:01;8.80;99.90
55173;DHT22;41061;52.822;6.860;2023-11-21T03:53:27;8.80;99.90
55173;DHT22;41061;52.822;6.860;2023-11-21T03:55:53;8.80;99.90
55173;DHT22;41061;52.822;6.860;2023-11-21T03:58:19;8.80;99.90
55173;DHT22;41061;52.822;6.860;2023-11-21T04:00:45;8.80;99.90
55173;DHT22;41061;52.822;6.860;2023-11-21T04:03:11;8.80;99.90
55173;DHT22;41061;52.822;6.860;2023-11-21T04:05:38;8.80;99.90
55173;DHT22;41061;52.822;6.860;2023-11-21T04:08:04;8.80;99.90
55173;DHT22;41061;52.822;6.860;2023-11-21T04:10:29;8.80;99.90
55173;DHT22;41061;52.822;6.860;2023-11-21T04:12:55;8.80;99.90
55173;DHT22;41061;52.822;6.860;2023-11-21T04:15:21;8.80;99.90
55173;DHT22;41061;52.822;6.860;2023-11-21T04:17:47;8.80;99.90
55173;DHT22;41061;52.822;6.860;2023-11-21T04:20:13;8.80;99.90
55173;DHT22;41061;52.822;6.860;2023-11-21T04:22:39;8.80;99.90
55173;DHT22;41061;52.822;6.860;2023-11-21T04:25:10;8.80;99.90
55173;DHT22;41061;52.822;6.860;2023-11-21T04:27:38;8.80;99.90
55173;DHT22;41061;52.822;6.860;2023-11-21T04:30:05;8.80;99.90
55173;DHT22;41061;52.822;6.860;2023-11-21T04:32:31;8.80;99.90
55173;DHT22;41061;52.822;6.860;2023-11-21T04:34:56;8.80;99.90
55173;DHT22;41061;52.822;6.860;2023-11-21T04:37:22;8.80;99.90
55173;DHT22;41061;52.822;6.860;2023-11-21T04:39:48;8.80;99.90
55173;DHT22;41061;52.822;6.860;2023-11-21T04:42:13;8.70;99.90
55173;DHT22;41061;52.822;6.860;2023-11-21T04:44:39;8.80;99.90
55173;DHT22;41061;52.822;6.860;2023-11-21T04:47:06;8.70;99.90
55173;DHT22;41061;52.822;6.860;2023-11-21T04:49:33;8.80;99.90
55173;DHT22;41061;52.822;6.860;2023-11-21T04:51:59;8.80;99.90
55173;DHT22;41061;52.822;6.860;2023-11-21T04:54:24;8.80;99.90
55173;DHT22;41061;52.822;6.860;2023-11-21T04:56:50;8.80;99.90
55173;DHT22;41061;52.822;6.860;2023-11-21T04:59:16;8.80;99.90
55173;DHT22;41061;52.822;6.860;2023-11-21T05:01:41;8.80;99.90
55173;DHT22;41061;52.822;6.860;2023-11-21T05:04:07;8.80;99.90
55173;DHT22;41061;52.822;6.860;2023-11-21T05:06:34;8.80;99.90
55173;DHT22;41061;52.822;6.860;2023-11-21T05:09:00;8.80;99.90
55173;DHT22;41061;52.822;6.860;2023-11-21T05:11:27;8.70;99.90
55173;DHT22;41061;52.822;6.860;2023-11-21T05:13:53;8.70;99.90
55173;DHT22;41061;52.822;6.860;2023-11-21T05:16:21;8.70;99.90
55173;DHT22;41061;52.822;6.860;2023-11-21T05:18:47;8.70;99.90
55173;DHT22;41061;52.822;6.860;2023-11-21T05:21:16;8.70;99.90
55173;DHT22;41061;52.822;6.860;2023-11-21T05:23:41;8.70;99.90
55173;DHT22;41061;52.822;6.860;2023-11-21T05:26:07;8.70;99.90
55173;DHT22;41061;52.822;6.860;2023-11-21T05:28:33;8.70;99.90
55173;DHT22;41061;52.822;6.860;2023-11-21T05:30:58;8.70;99.90
55173;DHT22;41061;52.822;6.860;2023-11-21T05:33:24;8.70;99.90
55173;DHT22;41061;52.822;6.860;2023-11-21T05:35:50;8.70;99.90
55173;DHT22;41061;52.822;6.860;2023-11-21T05:38:16;8.70;99.90
55173;DHT22;41061;52.822;6.860;2023-11-21T05:40:42;8.70;99.90
55173;DHT22;41061;52.822;6.860;2023-11-21T05:43:09;8.70;99.90
55173;DHT22;41061;52.822;6.860;2023-11-21T05:45:34;8.70;99.90
55173;DHT22;41061;52.822;6.860;2023-11-21T05:48:00;8.70;99.90
55173;DHT22;41061;52.822;6.860;2023-11-21T05:50:26;8.70;99.90
55173;DHT22;41061;52.822;6.860;2023-11-21T05:52:51;8.70;99.90
55173;DHT22;41061;52.822;6.860;2023-11-21T05:55:17;8.70;99.90
55173;DHT22;41061;52.822;6.860;2023-11-21T05:57:44;8.70;99.90
55173;DHT22;41061;52.822;6.860;2023-11-21T06:00:12;8.70;99.90
55173;DHT22;41061;52.822;6.860;2023-11-21T06:02:43;8.70;99.90
55173;DHT22;41061;52.822;6.860;2023-11-21T06:05:10;8.70;99.90
55173;DHT22;41061;52.822;6.860;2023-11-21T06:07:37;8.70;99.90
55173;DHT22;41061;52.822;6.860;2023-11-21T06:10:07;8.70;99.90
55173;DHT22;41061;52.822;6.860;2023-11-21T06:12:37;8.70;99.90
55173;DHT22;41061;52.822;6.860;2023-11-21T06:15:04;8.70;99.90
55173;DHT22;41061;52.822;6.860;2023-11-21T06:17:34;8.70;99.90
55173;DHT22;41061;52.822;6.860;2023-11-21T06:20:03;8.70;99.90
55173;DHT22;41061;52.822;6.860;2023-11-21T06:22:38;8.70;99.90
55173;DHT22;41061;52.822;6.860;2023-11-21T06:25:04;8.70;99.90
55173;DHT22;41061;52.822;6.860;2023-11-21T06:27:34;8.70;99.90
55173;DHT22;41061;52.822;6.860;2023-11-21T06:30:01;8.80;99.90
55173;DHT22;41061;52.822;6.860;2023-11-21T06:32:27;8.70;99.90
55173;DHT22;41061;52.822;6.860;2023-11-21T06:34:55;8.80;99.90
55173;DHT22;41061;52.822;6.860;2023-11-21T06:37:21;8.80;99.90
55173;DHT22;41061;52.822;6.860;2023-11-21T06:39:51;8.70;99.90
55173;DHT22;41061;52.822;6.860;2023-11-21T06:42:20;8.70;99.90
55173;DHT22;41061;52.822;6.860;2023-11-21T06:44:46;8.70;99.90
55173;DHT22;41061;52.822;6.860;2023-11-21T06:47:12;8.80;99.90
55173;DHT22;41061;52.822;6.860;2023-11-21T06:49:38;8.80;99.90
55173;DHT22;41061;52.822;6.860;2023-11-21T06:52:04;8.80;99.90
55173;DHT22;41061;52.822;6.860;2023-11-21T06:54:31;8.80;99.90
55173;DHT22;41061;52.822;6.860;2023-11-21T06:56:57;8.80;99.90
55173;DHT22;41061;52.822;6.860;2023-11-21T06:59:23;8.80;99.90
55173;DHT22;41061;52.822;6.860;2023-11-21T07:01:50;8.90;99.90
55173;DHT22;41061;52.822;6.860;2023-11-21T07:04:16;8.90;99.90
55173;DHT22;41061;52.822;6.860;2023-11-21T07:06:42;8.90;99.90
55173;DHT22;41061;52.822;6.860;2023-11-21T07:09:09;8.90;99.90
55173;DHT22;41061;52.822;6.860;2023-11-21T07:11:37;9.00;99.90
55173;DHT22;41061;52.822;6.860;2023-11-21T07:14:04;8.90;99.90
55173;DHT22;41061;52.822;6.860;2023-11-21T07:16:36;9.00;99.90
55173;DHT22;41061;52.822;6.860;2023-11-21T07:19:06;9.00;99.90
55173;DHT22;41061;52.822;6.860;2023-11-21T07:21:36;9.00;99.90
55173;DHT22;41061;52.822;6.860;2023-11-21T07:24:03;9.00;99.90
55173;DHT22;41061;52.822;6.860;2023-11-21T07:26:30;9.10;99.90
55173;DHT22;41061;52.822;6.860;2023-11-21T07:28:56;9.10;99.90
55173;DHT22;41061;52.822;6.860;2023-11-21T07:31:22;9.10;99.90
55173;DHT22;41061;52.822;6.860;2023-11-21T07:33:48;9.10;99.90
55173;DHT22;41061;52.822;6.860;2023-11-21T07:36:14;9.10;99.90
55173;DHT22;41061;52.822;6.860;2023-11-21T07:38:41;9.10;99.90
55173;DHT22;41061;52.822;6.860;2023-11-21T07:41:07;9.10;99.90
55173;DHT22;41061;52.822;6.860;2023-11-21T07:43:36;9.10;99.90
55173;DHT22;41061;52.822;6.860;2023-11-21T07:46:02;9.10;99.90
55173;DHT22;41061;52.822;6.860;2023-11-21T07:48:31;9.10;99.90
55173;DHT22;41061;52.822;6.860;2023-11-21T07:50:57;9.10;99.90
55173;DHT22;41061;52.822;6.860;2023-11-21T07:53:26;9.10;99.90
55173;DHT22;41061;52.822;6.860;2023-11-21T07:55:54;9.10;99.90
55173;DHT22;41061;52.822;6.860;2023-11-21T07:58:20;9.10;99.90
55173;DHT22;41061;52.822;6.860;2023-11-21T08:00:46;9.20;99.90
55173;DHT22;41061;52.822;6.860;2023-11-21T08:03:15;9.20;99.90
55173;DHT22;41061;52.822;6.860;2023-11-21T08:05:42;9.20;99.90
55173;DHT22;41061;52.822;6.860;2023-11-21T08:08:08;9.20;99.90
55173;DHT22;41061;52.822;6.860;2023-11-21T08:10:34;9.20;99.90
55173;DHT22;41061;52.822;6.860;2023-11-21T08:13:01;9.30;99.90
55173;DHT22;41061;52.822;6.860;2023-11-21T08:15:27;9.30;99.90
55173;DHT22;41061;52.822;6.860;2023-11-21T08:17:53;9.30;99.90
55173;DHT22;41061;52.822;6.860;2023-11-21T08:20:19;9.30;99.90
55173;DHT22;41061;52.822;6.860;2023-11-21T08:22:45;9.40;99.90
55173;DHT22;41061;52.822;6.860;2023-11-21T08:25:13;9.30;99.90
55173;DHT22;41061;52.822;6.860;2023-11-21T08:27:38;9.40;99.90
55173;DHT22;41061;52.822;6.860;2023-11-21T08:30:05;9.40;99.90
55173;DHT22;41061;52.822;6.860;2023-11-21T08:32:31;9.40;99.90
55173;DHT22;41061;52.822;6.860;2023-11-21T08:35:00;9.40;99.90
55173;DHT22;41061;52.822;6.860;2023-11-21T08:37:26;9.40;99.90
55173;DHT22;41061;52.822;6.860;2023-11-21T08:39:53;9.40;99.90
55173;DHT22;41061;52.822;6.860;2023-11-21T08:42:21;9.40;99.90
55173;DHT22;41061;52.822;6.860;2023-11-21T08:44:48;9.30;99.90
55173;DHT22;41061;52.822;6.860;2023-11-21T08:47:14;9.30;99.90
55173;DHT22;41061;52.822;6.860;2023-11-21T08:49:40;9.20;99.90
55173;DHT22;41061;52.822;6.860;2023-11-21T08:52:05;9.20;99.90
55173;DHT22;41061;52.822;6.860;2023-11-21T08:54:32;9.10;99.90
55173;DHT22;41061;52.822;6.860;2023-11-21T08:56:57;9.20;99.90
55173;DHT22;41061;52.822;6.860;2023-11-21T08:59:26;9.10;99.90
